createdAt,value
2019-05-02T00:01:29.399Z,9.57
2019-05-02T00:03:58.829Z,9.59
2019-05-02T00:06:28.456Z,9.55
2019-05-02T00:08:57.949Z,9.56
2019-05-02T00:11:28.658Z,9.55
2019-05-02T00:13:58.519Z,9.51
2019-05-02T00:16:28.292Z,9.48
2019-05-02T00:18:57.580Z,9.50
2019-05-02T00:21:26.874Z,9.42
2019-05-02T00:23:59.283Z,9.46
2019-05-02T00:26:27.253Z,9.47
2019-05-02T00:28:56.873Z,9.44
2019-05-02T00:31:26.165Z,9.44
2019-05-02T00:33:55.515Z,9.43
2019-05-02T00:36:24.774Z,9.40
2019-05-02T00:38:54.041Z,9.32
2019-05-02T00:41:23.310Z,9.32
2019-05-02T00:43:52.664Z,9.33
2019-05-02T00:46:21.989Z,9.29
2019-05-02T00:48:59.942Z,9.22
2019-05-02T00:51:29.093Z,9.24
2019-05-02T00:53:58.505Z,9.26
2019-05-02T00:56:28.057Z,9.31
2019-05-02T00:58:57.527Z,9.31
2019-05-02T01:01:39.092Z,9.32
2019-05-02T01:04:18.448Z,9.31
2019-05-02T01:06:49.391Z,9.33
2019-05-02T01:09:19.104Z,9.29
2019-05-02T01:11:48.402Z,9.25
2019-05-02T01:14:17.762Z,9.22
2019-05-02T01:16:49.379Z,9.27
2019-05-02T01:19:18.676Z,9.27
2019-05-02T01:21:48.290Z,9.24
2019-05-02T01:24:17.716Z,9.23
2019-05-02T01:27:06.474Z,9.19
2019-05-02T01:29:47.543Z,9.19
2019-05-02T01:32:35.790Z,9.14
2019-05-02T01:35:27.045Z,9.10
2019-05-02T01:38:11.815Z,9.08
2019-05-02T01:40:41.719Z,9.07
2019-05-02T01:43:24.119Z,9.00
2019-05-02T01:45:54.389Z,9.03
2019-05-02T01:48:24.144Z,9.03
2019-05-02T01:50:53.678Z,9.03
2019-05-02T01:53:23.045Z,9.02
2019-05-02T01:55:57.253Z,9.01
2019-05-02T01:58:23.630Z,8.99
2019-05-02T02:00:52.915Z,8.98
2019-05-02T02:03:22.334Z,8.96
2019-05-02T02:05:51.680Z,8.99
2019-05-02T02:08:20.995Z,9.03
2019-05-02T02:10:56.232Z,8.99
2019-05-02T02:13:22.042Z,9.01
2019-05-02T02:15:51.426Z,9.01
2019-05-02T02:18:22.388Z,9.02
2019-05-02T02:21:12.216Z,9.02
2019-05-02T02:24:00.763Z,8.98
2019-05-02T02:26:30.109Z,8.97
2019-05-02T02:29:02.996Z,8.96
2019-05-02T02:31:30.341Z,9.03
2019-05-02T02:33:59.818Z,9.01
2019-05-02T02:36:33.844Z,8.95
2019-05-02T02:39:00.265Z,8.96
2019-05-02T02:41:29.534Z,8.99
2019-05-02T02:44:17.900Z,8.99
2019-05-02T02:46:47.396Z,8.96
2019-05-02T02:49:21.497Z,9.01
2019-05-02T02:51:48.305Z,8.94
2019-05-02T02:54:17.701Z,8.98
2019-05-02T02:56:46.975Z,8.98
2019-05-02T02:59:19.564Z,8.98
2019-05-02T03:01:47.398Z,8.95
2019-05-02T03:04:16.681Z,8.95
2019-05-02T03:06:47.209Z,8.96
2019-05-02T03:09:20.114Z,8.97
2019-05-02T03:12:04.940Z,8.90
2019-05-02T03:14:41.050Z,8.92
2019-05-02T03:17:07.101Z,8.89
2019-05-02T03:19:36.400Z,8.86
2019-05-02T03:22:05.675Z,8.89
2019-05-02T03:24:36.787Z,8.87
2019-05-02T03:27:05.954Z,8.88
2019-05-02T03:29:41.080Z,8.84
2019-05-02T03:32:25.567Z,8.83
2019-05-02T03:34:47.243Z,8.85
2019-05-02T03:37:13.189Z,8.84
2019-05-02T03:39:39.687Z,8.86
2019-05-02T03:42:10.364Z,8.80
2019-05-02T03:44:40.679Z,8.83
2019-05-02T03:47:09.954Z,8.84
2019-05-02T03:49:40.939Z,8.92
2019-05-02T03:52:11.658Z,8.86
2019-05-02T03:54:49.733Z,8.90
2019-05-02T03:57:12.358Z,8.87
2019-05-02T03:59:42.009Z,8.87
2019-05-02T04:02:14.161Z,8.94
2019-05-02T04:04:44.344Z,8.98
2019-05-02T04:07:14.213Z,9.02
2019-05-02T04:09:43.473Z,9.08
2019-05-02T04:12:18.889Z,9.03
2019-05-02T04:14:44.522Z,9.05
2019-05-02T04:17:13.841Z,9.07
2019-05-02T04:19:43.934Z,9.12
2019-05-02T04:22:14.912Z,9.11
2019-05-02T04:24:47.953Z,9.17
2019-05-02T04:27:15.257Z,9.24
2019-05-02T04:29:44.843Z,9.28
2019-05-02T04:32:14.763Z,9.36
2019-05-02T04:34:49.063Z,9.29
2019-05-02T04:37:15.434Z,9.32
2019-05-02T04:39:44.769Z,9.32
2019-05-02T04:42:19.631Z,9.30
2019-05-02T04:45:09.423Z,9.32
2019-05-02T04:47:18.594Z,9.27
2019-05-02T04:49:49.086Z,9.26
2019-05-02T04:52:21.147Z,9.27
2019-05-02T04:54:49.780Z,9.27
2019-05-02T04:57:19.094Z,9.28
2019-05-02T04:59:50.588Z,9.35
2019-05-02T05:02:23.039Z,9.33
2019-05-02T05:04:50.653Z,9.37
2019-05-02T05:07:20.142Z,9.33
2019-05-02T05:09:57.068Z,9.30
2019-05-02T05:12:20.459Z,9.31
2019-05-02T05:14:49.837Z,9.29
2019-05-02T05:17:20.027Z,9.31
2019-05-02T05:19:49.461Z,9.35
2019-05-02T05:22:18.818Z,9.40
2019-05-02T05:25:00.726Z,9.44
2019-05-02T05:27:30.122Z,9.42
2019-05-02T05:30:07.660Z,9.42
2019-05-02T05:32:30.503Z,9.34
2019-05-02T05:35:03.291Z,9.36
2019-05-02T05:37:31.127Z,9.40
2019-05-02T05:40:00.364Z,9.36
2019-05-02T05:42:33.230Z,9.35
2019-05-02T05:45:03.871Z,9.32
2019-05-02T05:47:31.729Z,9.33
2019-05-02T05:50:01.397Z,9.35
2019-05-02T05:52:33.213Z,9.40
2019-05-02T05:55:04.753Z,9.48
2019-05-02T05:57:33.145Z,9.54
2019-05-02T06:00:03.936Z,9.58
2019-05-02T06:02:50.871Z,9.51
2019-05-02T06:05:05.539Z,9.61
2019-05-02T06:07:41.899Z,9.63
2019-05-02T06:10:07.999Z,9.68
2019-05-02T06:12:37.577Z,9.78
2019-05-02T06:15:07.290Z,9.83
2019-05-02T06:17:36.574Z,9.85
2019-05-02T06:20:06.275Z,9.97
2019-05-02T06:22:35.798Z,10.02
2019-05-02T06:25:10.321Z,9.96
2019-05-02T06:27:39.709Z,9.77
2019-05-02T06:30:09.626Z,9.75
2019-05-02T06:32:39.072Z,9.60
2019-05-02T06:35:08.634Z,9.56
2019-05-02T06:37:40.454Z,9.56
2019-05-02T06:40:09.442Z,9.52
2019-05-02T06:42:39.022Z,9.52
2019-05-02T06:45:08.823Z,9.62
2019-05-02T06:47:41.841Z,9.77
2019-05-02T06:50:10.655Z,9.80
2019-05-02T06:52:39.973Z,9.87
2019-05-02T06:55:09.349Z,9.92
2019-05-02T06:57:38.641Z,9.98
2019-05-02T07:00:08.911Z,9.99
2019-05-02T07:02:38.253Z,10.06
2019-05-02T07:05:07.868Z,10.14
2019-05-02T07:07:37.732Z,10.05
2019-05-02T07:10:07.698Z,9.97
2019-05-02T07:12:36.925Z,10.04
2019-05-02T07:15:10.959Z,10.04
2019-05-02T07:17:45.040Z,10.13
2019-05-02T07:20:15.001Z,10.12
2019-05-02T07:22:45.688Z,10.16
2019-05-02T07:25:17.063Z,10.10
2019-05-02T07:27:46.412Z,10.12
2019-05-02T07:30:17.107Z,9.96
2019-05-02T07:32:46.502Z,10.03
2019-05-02T07:35:19.225Z,10.15
2019-05-02T07:37:48.735Z,10.24
2019-05-02T07:40:18.864Z,10.50
2019-05-02T07:42:48.236Z,10.33
2019-05-02T07:45:17.562Z,10.38
2019-05-02T07:47:46.918Z,10.26
2019-05-02T07:50:16.508Z,10.23
2019-05-02T07:52:45.828Z,10.44
2019-05-02T07:55:15.289Z,10.60
2019-05-02T07:57:44.680Z,10.70
2019-05-02T08:00:16.110Z,10.79
2019-05-02T08:02:45.490Z,11.07
2019-05-02T08:05:21.008Z,10.83
2019-05-02T08:07:46.259Z,11.08
2019-05-02T08:10:22.145Z,11.11
2019-05-02T08:12:48.954Z,11.25
2019-05-02T08:15:18.554Z,11.42
2019-05-02T08:17:53.264Z,11.38
2019-05-02T08:20:19.813Z,11.09
2019-05-02T08:22:50.482Z,10.96
2019-05-02T08:25:20.060Z,10.96
2019-05-02T08:28:04.896Z,11.06
2019-05-02T08:30:40.396Z,10.97
2019-05-02T08:33:09.738Z,10.69
2019-05-02T08:35:39.238Z,10.78
2019-05-02T08:38:12.552Z,10.71
2019-05-02T08:40:42.262Z,10.59
2019-05-02T08:43:10.950Z,10.53
2019-05-02T08:45:40.341Z,10.72
2019-05-02T08:48:09.581Z,10.81
2019-05-02T08:50:39.189Z,10.80
2019-05-02T08:53:08.572Z,10.93
2019-05-02T08:55:41.307Z,11.23
2019-05-02T08:58:14.389Z,11.29
2019-05-02T09:00:40.273Z,11.23
2019-05-02T09:03:09.592Z,11.14
2019-05-02T09:05:45.342Z,11.35
2019-05-02T09:08:14.265Z,11.31
2019-05-02T09:10:42.232Z,11.20
2019-05-02T09:13:15.830Z,11.22
2019-05-02T09:15:49.781Z,11.27
2019-05-02T09:18:14.392Z,11.11
2019-05-02T09:20:47.095Z,11.39
2019-05-02T09:23:14.975Z,11.66
2019-05-02T09:25:44.288Z,11.48
2019-05-02T09:28:17.081Z,11.57
2019-05-02T09:30:46.826Z,11.53
2019-05-02T09:33:16.153Z,11.42
2019-05-02T09:35:45.404Z,11.19
2019-05-02T09:38:16.393Z,11.07
2019-05-02T09:40:47.177Z,11.11
2019-05-02T09:43:16.786Z,11.24
2019-05-02T09:45:47.143Z,11.28
2019-05-02T09:48:17.296Z,11.35
2019-05-02T09:50:47.641Z,11.30
2019-05-02T09:53:20.770Z,11.50
2019-05-02T09:55:55.120Z,12.65
2019-05-02T09:58:21.907Z,13.14
2019-05-02T10:01:01.856Z,12.44
2019-05-02T10:03:31.904Z,12.64
2019-05-02T10:06:03.186Z,12.53
2019-05-02T10:08:32.653Z,12.41
2019-05-02T10:11:02.962Z,12.31
2019-05-02T10:13:33.626Z,12.88
2019-05-02T10:16:03.150Z,12.38
2019-05-02T10:18:33.053Z,11.90
2019-05-02T10:21:03.147Z,11.81
2019-05-02T10:23:32.967Z,11.76
2019-05-02T10:26:02.872Z,11.93
2019-05-02T10:28:32.182Z,11.86
2019-05-02T10:31:02.274Z,12.89
2019-05-02T10:33:33.714Z,13.00
2019-05-02T10:36:02.993Z,12.80
2019-05-02T10:38:32.694Z,12.69
2019-05-02T10:41:04.585Z,13.80
2019-05-02T10:43:33.146Z,14.15
2019-05-02T10:46:37.936Z,14.03
2019-05-02T10:49:16.662Z,13.29
2019-05-02T10:51:49.163Z,13.22
2019-05-02T10:54:17.128Z,14.15
2019-05-02T10:56:46.422Z,14.24
2019-05-02T10:59:15.766Z,13.90
2019-05-02T11:02:10.162Z,13.99
2019-05-02T11:04:43.996Z,13.37
2019-05-02T11:07:16.958Z,12.89
2019-05-02T11:09:44.508Z,12.42
2019-05-02T11:12:24.318Z,12.66
2019-05-02T11:14:56.457Z,13.69
2019-05-02T11:17:32.355Z,13.69
2019-05-02T11:20:06.501Z,14.98
2019-05-02T11:22:35.838Z,15.79
2019-05-02T11:25:05.782Z,15.04
2019-05-02T11:27:35.067Z,14.39
2019-05-02T11:30:05.242Z,13.92
2019-05-02T11:32:34.535Z,12.48
2019-05-02T11:35:03.890Z,11.70
2019-05-02T11:37:33.400Z,11.11
2019-05-02T11:40:06.156Z,10.26
2019-05-02T11:42:34.123Z,9.90
2019-05-02T11:45:03.431Z,10.02
2019-05-02T11:47:32.975Z,9.93
2019-05-02T11:50:02.627Z,9.83
2019-05-02T11:52:36.070Z,10.06
2019-05-02T11:55:03.113Z,10.42
2019-05-02T11:57:33.215Z,11.21
2019-05-02T12:00:05.031Z,11.80
2019-05-02T12:02:58.026Z,11.94
2019-05-02T12:05:35.726Z,12.03
2019-05-02T12:08:07.819Z,11.80
2019-05-02T12:10:36.658Z,11.45
2019-05-02T12:13:06.618Z,11.51
2019-05-02T12:15:36.804Z,11.64
2019-05-02T12:18:06.144Z,11.74
2019-05-02T12:20:36.868Z,11.79
2019-05-02T12:23:09.001Z,11.91
2019-05-02T12:25:37.337Z,12.00
2019-05-02T12:28:06.896Z,12.38
2019-05-02T12:30:37.816Z,12.38
2019-05-02T12:33:07.451Z,12.54
2019-05-02T12:35:36.789Z,12.27
2019-05-02T12:38:06.079Z,12.26
2019-05-02T12:40:35.504Z,12.14
2019-05-02T12:43:04.945Z,12.25
2019-05-02T12:45:34.205Z,12.51
2019-05-02T12:48:03.648Z,12.97
2019-05-02T12:50:33.078Z,13.02
2019-05-02T12:53:03.059Z,13.27
2019-05-02T12:55:32.661Z,13.22
2019-05-02T12:58:03.107Z,13.31
2019-05-02T13:00:32.557Z,13.20
2019-05-02T13:03:33.384Z,13.24
2019-05-02T13:06:03.175Z,13.79
2019-05-02T13:08:34.213Z,13.73
2019-05-02T13:11:18.141Z,13.43
2019-05-02T13:13:47.600Z,13.25
2019-05-02T13:16:16.894Z,12.99
2019-05-02T13:18:46.230Z,13.02
2019-05-02T13:21:20.806Z,12.64
2019-05-02T13:24:17.666Z,12.87
2019-05-02T13:26:53.856Z,12.81
2019-05-02T13:29:18.124Z,12.83
2019-05-02T13:32:16.983Z,12.69
2019-05-02T13:34:48.701Z,12.41
2019-05-02T13:37:18.678Z,12.66
2019-05-02T13:40:11.994Z,12.62
2019-05-02T13:42:41.897Z,12.54
2019-05-02T13:45:19.049Z,12.60
2019-05-02T13:47:48.559Z,12.59
2019-05-02T13:50:18.261Z,12.79
2019-05-02T13:52:53.133Z,12.91
2019-05-02T13:55:23.655Z,13.02
2019-05-02T13:57:53.145Z,13.05
2019-05-02T14:00:29.457Z,12.97
2019-05-02T14:02:58.713Z,12.89
2019-05-02T14:05:28.015Z,12.84
2019-05-02T14:08:14.517Z,12.85
2019-05-02T14:10:45.127Z,12.90
2019-05-02T14:13:14.378Z,12.63
2019-05-02T14:15:43.791Z,12.73
2019-05-02T14:18:13.099Z,12.51
2019-05-02T14:20:42.884Z,12.08
2019-05-02T14:23:12.282Z,11.95
2019-05-02T14:25:42.584Z,11.69
2019-05-02T14:28:12.966Z,11.44
2019-05-02T14:30:46.115Z,11.37
2019-05-02T14:33:18.019Z,11.31
2019-05-02T14:35:47.538Z,11.19
2019-05-02T14:38:19.597Z,11.52
2019-05-02T14:41:21.738Z,11.88
2019-05-02T14:43:57.137Z,11.77
2019-05-02T14:46:35.354Z,11.36
2019-05-02T14:48:58.267Z,11.26
2019-05-02T14:51:28.139Z,11.12
2019-05-02T14:54:03.598Z,10.91
2019-05-02T14:56:45.942Z,11.01
2019-05-02T14:59:15.313Z,11.04
2019-05-02T15:01:47.558Z,11.16
2019-05-02T15:04:17.013Z,11.33
2019-05-02T15:06:47.592Z,11.77
2019-05-02T15:09:22.518Z,12.09
2019-05-02T15:12:02.892Z,12.00
2019-05-02T15:14:33.346Z,11.67
2019-05-02T15:17:02.992Z,11.64
2019-05-02T15:19:33.198Z,11.69
2019-05-02T15:22:02.691Z,11.74
2019-05-02T15:24:37.454Z,11.74
2019-05-02T15:27:11.350Z,11.78
2019-05-02T15:29:34.882Z,11.75
2019-05-02T15:32:25.965Z,11.66
2019-05-02T15:35:24.932Z,11.59
2019-05-02T15:37:51.871Z,11.49
2019-05-02T15:42:52.457Z,11.87
2019-05-02T15:45:23.989Z,11.88
2019-05-02T15:47:53.385Z,11.75
2019-05-02T15:50:25.489Z,11.63
2019-05-02T15:53:10.071Z,11.44
2019-05-02T15:55:42.122Z,11.02
2019-05-02T15:58:16.945Z,10.73
2019-05-02T16:00:56.467Z,10.60
2019-05-02T16:03:45.763Z,10.84
2019-05-02T16:06:16.468Z,11.09
2019-05-02T16:08:47.118Z,11.03
2019-05-02T16:11:17.604Z,10.68
2019-05-02T16:13:52.760Z,10.66
2019-05-02T16:16:21.754Z,10.63
2019-05-02T16:18:52.581Z,10.65
2019-05-02T16:21:42.519Z,10.52
2019-05-02T16:24:22.913Z,10.53
2019-05-02T16:26:56.433Z,10.51
2019-05-02T16:29:28.435Z,10.54
2019-05-02T16:32:30.920Z,10.53
2019-05-02T16:35:02.792Z,10.48
2019-05-02T16:37:32.525Z,10.28
2019-05-02T16:40:02.605Z,10.30
2019-05-02T16:42:32.827Z,10.20
2019-05-02T16:45:02.734Z,10.21
2019-05-02T16:47:32.718Z,10.20
2019-05-02T16:50:02.533Z,9.99
2019-05-02T16:52:32.673Z,9.91
2019-05-02T16:55:02.972Z,9.82
2019-05-02T16:57:32.725Z,9.79
2019-05-02T17:00:06.205Z,9.68
2019-05-02T17:02:37.937Z,9.63
2019-05-02T17:05:09.337Z,9.65
2019-05-02T17:08:03.326Z,9.61
2019-05-02T17:10:38.609Z,9.42
2019-05-02T17:13:07.934Z,9.29
2019-05-02T17:15:37.708Z,9.20
2019-05-02T17:18:18.055Z,9.05
2019-05-02T17:20:39.015Z,9.03
2019-05-02T17:23:08.336Z,8.98
2019-05-02T17:25:37.887Z,8.99
2019-05-02T17:28:10.513Z,9.05
2019-05-02T17:30:40.450Z,9.17
2019-05-02T17:33:14.267Z,9.11
2019-05-02T17:35:48.386Z,9.07
2019-05-02T17:38:12.248Z,9.00
2019-05-02T17:40:42.151Z,8.86
2019-05-02T17:43:11.681Z,8.90
2019-05-02T17:45:41.013Z,8.87
2019-05-02T17:48:16.430Z,8.83
2019-05-02T17:51:02.218Z,8.87
2019-05-02T17:53:33.631Z,8.93
2019-05-02T17:56:02.591Z,8.90
2019-05-02T17:58:31.957Z,8.77
2019-05-02T18:01:03.121Z,8.68
2019-05-02T18:03:35.193Z,8.74
2019-05-02T18:06:07.713Z,8.61
2019-05-02T18:08:34.850Z,8.54
2019-05-02T18:11:04.200Z,8.50
2019-05-02T18:13:35.303Z,8.46
2019-05-02T18:16:07.756Z,8.56
2019-05-02T18:18:37.576Z,8.50
2019-05-02T18:21:06.898Z,8.51
2019-05-02T18:23:36.222Z,8.38
2019-05-02T18:26:06.451Z,8.37
2019-05-02T18:28:46.247Z,8.25
2019-05-02T18:31:06.989Z,8.19
2019-05-02T18:33:41.026Z,8.08
2019-05-02T18:36:07.542Z,8.02
2019-05-02T18:38:36.818Z,8.02
2019-05-02T18:41:07.791Z,7.97
2019-05-02T18:43:43.460Z,7.77
2019-05-02T18:46:08.285Z,7.40
2019-05-02T18:48:44.201Z,7.34
2019-05-02T18:51:08.983Z,7.35
2019-05-02T18:53:38.242Z,7.36
2019-05-02T18:56:07.624Z,7.33
2019-05-02T18:58:41.342Z,7.30
2019-05-02T19:01:13.306Z,7.30
2019-05-02T19:03:39.878Z,7.24
2019-05-02T19:06:09.198Z,7.26
2019-05-02T19:08:46.619Z,7.14
2019-05-02T19:11:12.666Z,7.03
2019-05-02T19:13:44.195Z,6.82
2019-05-02T19:16:13.229Z,6.78
2019-05-02T19:18:42.694Z,6.64
2019-05-02T19:21:12.690Z,6.51
2019-05-02T19:23:42.614Z,6.43
2019-05-02T19:26:14.957Z,6.39
2019-05-02T19:29:17.087Z,6.30
2019-05-02T19:31:47.153Z,6.23
2019-05-02T19:34:21.797Z,6.09
2019-05-02T19:36:47.760Z,6.01
2019-05-02T19:39:17.336Z,6.04
2019-05-02T19:41:46.648Z,6.04
2019-05-02T19:44:21.479Z,6.06
2019-05-02T19:46:47.333Z,6.12
2019-05-02T19:49:16.655Z,6.16
2019-05-02T19:51:50.355Z,6.18
2019-05-02T19:54:17.430Z,6.31
2019-05-02T19:56:47.603Z,6.43
2019-05-02T19:59:24.631Z,6.50
2019-05-02T20:01:48.333Z,6.55
2019-05-02T20:04:17.696Z,6.57
2019-05-02T20:06:47.063Z,6.56
2019-05-02T20:09:16.697Z,6.52
2019-05-02T20:11:46.076Z,6.50
2019-05-02T20:14:15.525Z,6.53
2019-05-02T20:16:50.245Z,6.51
2019-05-02T20:19:23.047Z,6.51
2019-05-02T20:22:11.826Z,6.20
2019-05-02T20:24:59.875Z,5.77
2019-05-02T20:27:28.432Z,5.44
2019-05-02T20:29:57.497Z,5.30
2019-05-02T20:32:27.141Z,5.32
2019-05-02T20:34:56.427Z,5.29
2019-05-02T20:37:25.863Z,5.25
2019-05-02T20:39:55.395Z,5.13
2019-05-02T20:42:24.717Z,5.20
2019-05-02T20:44:53.987Z,5.17
2019-05-02T20:47:26.021Z,5.15
2019-05-02T20:49:55.452Z,5.11
2019-05-02T20:52:24.740Z,4.96
2019-05-02T20:54:54.213Z,4.77
2019-05-02T20:57:23.593Z,4.70
2019-05-02T20:59:52.839Z,4.65
2019-05-02T21:02:22.371Z,4.59
2019-05-02T21:04:52.273Z,4.57
2019-05-02T21:07:34.626Z,4.57
2019-05-02T21:10:08.463Z,4.53
2019-05-02T21:12:37.843Z,4.45
2019-05-02T21:15:07.334Z,4.34
2019-05-02T21:17:36.636Z,4.24
2019-05-02T21:20:06.849Z,4.19
2019-05-02T21:22:36.689Z,4.15
2019-05-02T21:25:06.635Z,4.07
2019-05-02T21:27:36.038Z,3.99
2019-05-02T21:30:06.603Z,3.93
2019-05-02T21:32:35.903Z,3.84
2019-05-02T21:35:06.041Z,3.78
2019-05-02T21:37:35.304Z,3.70
2019-05-02T21:40:05.087Z,3.65
2019-05-02T21:42:34.594Z,3.57
2019-05-02T21:45:05.076Z,3.48
2019-05-02T21:47:34.414Z,3.44
2019-05-02T21:50:26.346Z,3.35
2019-05-02T21:53:22.190Z,3.27
2019-05-02T21:56:12.304Z,3.14
2019-05-02T21:59:02.819Z,3.06
2019-05-02T22:01:32.887Z,3.04
2019-05-02T22:04:02.432Z,3.05
2019-05-02T22:06:33.037Z,3.05
2019-05-02T22:09:03.155Z,3.10
2019-05-02T22:11:32.578Z,3.13
2019-05-02T22:14:02.484Z,3.18
2019-05-02T22:16:32.685Z,3.19
2019-05-02T22:19:02.913Z,3.24
2019-05-02T22:21:35.093Z,3.24
2019-05-02T22:24:11.210Z,3.23
2019-05-02T22:26:35.011Z,3.18
2019-05-02T22:29:04.313Z,3.12
2019-05-02T22:31:33.618Z,3.08
2019-05-02T22:34:03.111Z,3.03
2019-05-02T22:36:32.869Z,2.99
2019-05-02T22:39:17.986Z,2.96
2019-05-02T22:41:47.282Z,2.95
2019-05-02T22:44:16.589Z,2.99
2019-05-02T22:46:46.869Z,3.02
2019-05-02T22:49:16.565Z,3.05
2019-05-02T22:51:45.878Z,3.07
2019-05-02T22:54:26.968Z,3.07
2019-05-02T22:56:46.414Z,3.09
2019-05-02T22:59:15.676Z,3.10
2019-05-02T23:01:45.194Z,3.10
2019-05-02T23:04:14.504Z,3.13
2019-05-02T23:06:44.261Z,3.15
2019-05-02T23:09:13.969Z,3.11
2019-05-02T23:11:43.292Z,3.05
2019-05-02T23:14:12.577Z,2.99
2019-05-02T23:16:42.911Z,2.91
2019-05-02T23:19:12.573Z,2.83
2019-05-02T23:21:42.361Z,2.77
2019-05-02T23:24:18.169Z,2.72
2019-05-02T23:27:00.077Z,2.78
2019-05-02T23:29:29.620Z,2.92
2019-05-02T23:31:58.920Z,3.02
2019-05-02T23:34:28.341Z,3.02
2019-05-02T23:36:57.861Z,2.99
2019-05-02T23:39:27.139Z,2.98
2019-05-02T23:41:56.399Z,3.02
2019-05-02T23:44:26.105Z,2.97
2019-05-02T23:46:55.398Z,2.89
2019-05-02T23:49:24.705Z,2.90
2019-05-02T23:51:54.203Z,2.79
2019-05-02T23:54:23.508Z,2.71
2019-05-02T23:56:52.762Z,2.69
2019-05-02T23:59:22.462Z,2.71
